sensor_id;sensor_type;location;lat;lon;timestamp;P1;durP1;ratioP1;P2;durP2;ratioP2
19004;SDS011;9635;52.078;8.648;2022-10-16T00:02:15;6.50;;;4.28;;
19004;SDS011;9635;52.078;8.648;2022-10-16T00:07:19;5.28;;;3.80;;
19004;SDS011;9635;52.078;8.648;2022-10-16T00:12:22;9.63;;;4.30;;
19004;SDS011;9635;52.078;8.648;2022-10-16T00:17:25;4.78;;;3.83;;
19004;SDS011;9635;52.078;8.648;2022-10-16T00:22:29;4.63;;;3.83;;
19004;SDS011;9635;52.078;8.648;2022-10-16T00:27:32;7.30;;;3.63;;
19004;SDS011;9635;52.078;8.648;2022-10-16T00:32:36;6.45;;;3.63;;
19004;SDS011;9635;52.078;8.648;2022-10-16T00:37:40;7.75;;;3.80;;
19004;SDS011;9635;52.078;8.648;2022-10-16T00:42:42;13.30;;;4.28;;
19004;SDS011;9635;52.078;8.648;2022-10-16T00:47:45;5.93;;;3.80;;
19004;SDS011;9635;52.078;8.648;2022-10-16T00:52:54;8.15;;;3.50;;
19004;SDS011;9635;52.078;8.648;2022-10-16T00:57:58;5.28;;;3.58;;
19004;SDS011;9635;52.078;8.648;2022-10-16T01:03:02;4.63;;;3.35;;
19004;SDS011;9635;52.078;8.648;2022-10-16T01:08:08;6.85;;;3.78;;
19004;SDS011;9635;52.078;8.648;2022-10-16T01:13:17;4.75;;;3.08;;
19004;SDS011;9635;52.078;8.648;2022-10-16T01:18:25;8.82;;;4.10;;
19004;SDS011;9635;52.078;8.648;2022-10-16T01:23:39;5.80;;;3.53;;
19004;SDS011;9635;52.078;8.648;2022-10-16T01:28:54;7.45;;;3.97;;
19004;SDS011;9635;52.078;8.648;2022-10-16T01:34:00;6.80;;;4.18;;
19004;SDS011;9635;52.078;8.648;2022-10-16T01:39:06;7.00;;;4.53;;
19004;SDS011;9635;52.078;8.648;2022-10-16T01:44:15;6.30;;;3.47;;
19004;SDS011;9635;52.078;8.648;2022-10-16T01:49:23;5.97;;;3.55;;
19004;SDS011;9635;52.078;8.648;2022-10-16T01:54:28;7.43;;;3.95;;
19004;SDS011;9635;52.078;8.648;2022-10-16T01:59:37;5.57;;;3.88;;
19004;SDS011;9635;52.078;8.648;2022-10-16T02:04:46;6.35;;;4.75;;
19004;SDS011;9635;52.078;8.648;2022-10-16T02:09:51;7.10;;;4.45;;
19004;SDS011;9635;52.078;8.648;2022-10-16T02:14:56;8.32;;;3.90;;
19004;SDS011;9635;52.078;8.648;2022-10-16T02:19:59;8.02;;;4.03;;
19004;SDS011;9635;52.078;8.648;2022-10-16T02:25:04;6.28;;;4.20;;
19004;SDS011;9635;52.078;8.648;2022-10-16T02:30:13;5.97;;;4.20;;
19004;SDS011;9635;52.078;8.648;2022-10-16T02:35:21;6.78;;;4.30;;
19004;SDS011;9635;52.078;8.648;2022-10-16T02:40:26;5.75;;;4.95;;
19004;SDS011;9635;52.078;8.648;2022-10-16T02:45:31;7.28;;;4.40;;
19004;SDS011;9635;52.078;8.648;2022-10-16T02:50:34;9.57;;;4.85;;
19004;SDS011;9635;52.078;8.648;2022-10-16T02:55:37;9.30;;;4.30;;
19004;SDS011;9635;52.078;8.648;2022-10-16T03:00:41;9.50;;;5.88;;
19004;SDS011;9635;52.078;8.648;2022-10-16T03:05:44;5.95;;;4.07;;
19004;SDS011;9635;52.078;8.648;2022-10-16T03:10:47;8.93;;;4.32;;
19004;SDS011;9635;52.078;8.648;2022-10-16T03:20:54;8.32;;;4.68;;
19004;SDS011;9635;52.078;8.648;2022-10-16T03:25:57;9.63;;;4.57;;
19004;SDS011;9635;52.078;8.648;2022-10-16T03:31:01;8.25;;;4.15;;
19004;SDS011;9635;52.078;8.648;2022-10-16T03:36:04;6.55;;;4.80;;
19004;SDS011;9635;52.078;8.648;2022-10-16T03:41:07;11.23;;;4.78;;
19004;SDS011;9635;52.078;8.648;2022-10-16T03:46:11;4.78;;;3.80;;
19004;SDS011;9635;52.078;8.648;2022-10-16T03:51:14;6.63;;;3.58;;
19004;SDS011;9635;52.078;8.648;2022-10-16T04:01:21;4.93;;;3.55;;
19004;SDS011;9635;52.078;8.648;2022-10-16T04:06:24;4.75;;;4.22;;
19004;SDS011;9635;52.078;8.648;2022-10-16T04:16:30;4.70;;;3.75;;
19004;SDS011;9635;52.078;8.648;2022-10-16T04:21:33;6.20;;;4.00;;
19004;SDS011;9635;52.078;8.648;2022-10-16T04:31:40;7.90;;;3.65;;
19004;SDS011;9635;52.078;8.648;2022-10-16T04:36:43;6.07;;;3.83;;
19004;SDS011;9635;52.078;8.648;2022-10-16T04:41:46;5.35;;;3.55;;
19004;SDS011;9635;52.078;8.648;2022-10-16T04:46:51;3.03;;;2.70;;
19004;SDS011;9635;52.078;8.648;2022-10-16T04:51:54;4.25;;;3.10;;
19004;SDS011;9635;52.078;8.648;2022-10-16T04:56:56;5.10;;;3.40;;
19004;SDS011;9635;52.078;8.648;2022-10-16T05:02:01;6.20;;;2.97;;
19004;SDS011;9635;52.078;8.648;2022-10-16T05:07:04;5.90;;;2.55;;
19004;SDS011;9635;52.078;8.648;2022-10-16T05:17:10;2.70;;;2.47;;
19004;SDS011;9635;52.078;8.648;2022-10-16T05:22:13;3.90;;;2.20;;
19004;SDS011;9635;52.078;8.648;2022-10-16T05:32:22;3.40;;;2.58;;
19004;SDS011;9635;52.078;8.648;2022-10-16T05:37:25;5.40;;;2.72;;
19004;SDS011;9635;52.078;8.648;2022-10-16T05:42:28;5.35;;;2.78;;
19004;SDS011;9635;52.078;8.648;2022-10-16T05:47:32;3.05;;;2.22;;
19004;SDS011;9635;52.078;8.648;2022-10-16T05:52:35;2.60;;;2.40;;
19004;SDS011;9635;52.078;8.648;2022-10-16T06:02:42;4.13;;;2.17;;
19004;SDS011;9635;52.078;8.648;2022-10-16T06:07:45;3.97;;;1.77;;
19004;SDS011;9635;52.078;8.648;2022-10-16T06:17:51;3.90;;;1.60;;
19004;SDS011;9635;52.078;8.648;2022-10-16T06:22:54;1.73;;;1.60;;
19004;SDS011;9635;52.078;8.648;2022-10-16T06:27:57;4.35;;;1.52;;
19004;SDS011;9635;52.078;8.648;2022-10-16T06:33:02;3.40;;;1.60;;
19004;SDS011;9635;52.078;8.648;2022-10-16T06:38:04;7.50;;;1.63;;
19004;SDS011;9635;52.078;8.648;2022-10-16T06:48:11;1.40;;;1.08;;
19004;SDS011;9635;52.078;8.648;2022-10-16T06:53:14;1.70;;;1.05;;
19004;SDS011;9635;52.078;8.648;2022-10-16T06:58:17;1.60;;;1.10;;
19004;SDS011;9635;52.078;8.648;2022-10-16T07:03:26;3.42;;;1.15;;
19004;SDS011;9635;52.078;8.648;2022-10-16T07:08:30;1.15;;;1.10;;
19004;SDS011;9635;52.078;8.648;2022-10-16T07:13:34;2.00;;;1.52;;
19004;SDS011;9635;52.078;8.648;2022-10-16T07:18:40;2.95;;;1.00;;
19004;SDS011;9635;52.078;8.648;2022-10-16T07:23:45;2.35;;;1.10;;
19004;SDS011;9635;52.078;8.648;2022-10-16T07:28:52;1.90;;;1.10;;
19004;SDS011;9635;52.078;8.648;2022-10-16T07:33:57;1.48;;;1.00;;
19004;SDS011;9635;52.078;8.648;2022-10-16T07:39:00;1.15;;;1.00;;
19004;SDS011;9635;52.078;8.648;2022-10-16T07:44:04;3.08;;;1.20;;
19004;SDS011;9635;52.078;8.648;2022-10-16T07:49:09;2.55;;;1.08;;
19004;SDS011;9635;52.078;8.648;2022-10-16T07:54:12;1.55;;;0.80;;
19004;SDS011;9635;52.078;8.648;2022-10-16T07:59:15;0.90;;;0.90;;
19004;SDS011;9635;52.078;8.648;2022-10-16T08:04:19;5.78;;;0.95;;
19004;SDS011;9635;52.078;8.648;2022-10-16T08:09:22;1.65;;;0.60;;
19004;SDS011;9635;52.078;8.648;2022-10-16T08:14:25;3.20;;;1.30;;
19004;SDS011;9635;52.078;8.648;2022-10-16T08:19:29;2.78;;;1.13;;
19004;SDS011;9635;52.078;8.648;2022-10-16T08:24:35;2.20;;;1.20;;
19004;SDS011;9635;52.078;8.648;2022-10-16T08:29:38;1.50;;;1.40;;
19004;SDS011;9635;52.078;8.648;2022-10-16T08:34:42;1.58;;;1.05;;
19004;SDS011;9635;52.078;8.648;2022-10-16T08:39:45;1.58;;;1.20;;
19004;SDS011;9635;52.078;8.648;2022-10-16T08:50:27;3.83;;;1.20;;
19004;SDS011;9635;52.078;8.648;2022-10-16T08:55:33;4.22;;;1.10;;
19004;SDS011;9635;52.078;8.648;2022-10-16T09:00:41;1.35;;;1.05;;
19004;SDS011;9635;52.078;8.648;2022-10-16T09:05:52;1.50;;;0.82;;
19004;SDS011;9635;52.078;8.648;2022-10-16T09:11:04;1.95;;;1.00;;
19004;SDS011;9635;52.078;8.648;2022-10-16T09:16:14;2.42;;;0.90;;
19004;SDS011;9635;52.078;8.648;2022-10-16T09:21:25;3.67;;;1.20;;
19004;SDS011;9635;52.078;8.648;2022-10-16T09:26:31;6.30;;;1.40;;
19004;SDS011;9635;52.078;8.648;2022-10-16T09:31:35;1.70;;;0.68;;
19004;SDS011;9635;52.078;8.648;2022-10-16T09:36:41;2.20;;;0.70;;
19004;SDS011;9635;52.078;8.648;2022-10-16T09:41:47;2.13;;;0.73;;
19004;SDS011;9635;52.078;8.648;2022-10-16T09:47:00;2.63;;;0.75;;
19004;SDS011;9635;52.078;8.648;2022-10-16T09:52:05;3.63;;;0.85;;
19004;SDS011;9635;52.078;8.648;2022-10-16T09:57:13;2.85;;;0.80;;
19004;SDS011;9635;52.078;8.648;2022-10-16T10:02:17;2.35;;;1.05;;
19004;SDS011;9635;52.078;8.648;2022-10-16T10:07:25;2.15;;;0.63;;
19004;SDS011;9635;52.078;8.648;2022-10-16T10:12:30;3.00;;;0.60;;
19004;SDS011;9635;52.078;8.648;2022-10-16T10:17:44;6.00;;;0.80;;
19004;SDS011;9635;52.078;8.648;2022-10-16T10:22:50;1.13;;;0.40;;
19004;SDS011;9635;52.078;8.648;2022-10-16T10:27:57;2.47;;;0.60;;
19004;SDS011;9635;52.078;8.648;2022-10-16T10:33:16;4.97;;;1.33;;
19004;SDS011;9635;52.078;8.648;2022-10-16T10:38:30;4.05;;;0.80;;
19004;SDS011;9635;52.078;8.648;2022-10-16T10:43:43;2.22;;;0.70;;
19004;SDS011;9635;52.078;8.648;2022-10-16T10:49:03;3.20;;;0.60;;
19004;SDS011;9635;52.078;8.648;2022-10-16T10:54:20;3.35;;;0.80;;
19004;SDS011;9635;52.078;8.648;2022-10-16T10:59:32;2.38;;;0.77;;
19004;SDS011;9635;52.078;8.648;2022-10-16T11:04:49;2.15;;;0.60;;
19004;SDS011;9635;52.078;8.648;2022-10-16T11:10:03;1.15;;;0.40;;
19004;SDS011;9635;52.078;8.648;2022-10-16T11:15:15;1.58;;;0.63;;
19004;SDS011;9635;52.078;8.648;2022-10-16T11:20:22;2.15;;;0.70;;
19004;SDS011;9635;52.078;8.648;2022-10-16T11:25:29;2.47;;;0.73;;
19004;SDS011;9635;52.078;8.648;2022-10-16T11:30:38;3.03;;;0.80;;
19004;SDS011;9635;52.078;8.648;2022-10-16T11:35:47;0.82;;;0.60;;
19004;SDS011;9635;52.078;8.648;2022-10-16T11:40:56;0.70;;;0.50;;
19004;SDS011;9635;52.078;8.648;2022-10-16T11:46:08;6.53;;;1.25;;
19004;SDS011;9635;52.078;8.648;2022-10-16T11:51:14;2.90;;;0.85;;
19004;SDS011;9635;52.078;8.648;2022-10-16T11:56:25;5.63;;;1.40;;
19004;SDS011;9635;52.078;8.648;2022-10-16T12:01:30;1.35;;;0.55;;
19004;SDS011;9635;52.078;8.648;2022-10-16T12:06:41;1.13;;;0.40;;
19004;SDS011;9635;52.078;8.648;2022-10-16T12:11:47;2.35;;;0.80;;
19004;SDS011;9635;52.078;8.648;2022-10-16T12:16:51;3.35;;;0.40;;
19004;SDS011;9635;52.078;8.648;2022-10-16T12:21:56;7.00;;;0.95;;
19004;SDS011;9635;52.078;8.648;2022-10-16T12:27:02;2.90;;;0.63;;
19004;SDS011;9635;52.078;8.648;2022-10-16T12:32:19;3.47;;;0.50;;
19004;SDS011;9635;52.078;8.648;2022-10-16T12:37:47;1.48;;;0.43;;
19004;SDS011;9635;52.078;8.648;2022-10-16T12:42:52;2.38;;;0.98;;
19004;SDS011;9635;52.078;8.648;2022-10-16T12:47:55;2.30;;;1.05;;
19004;SDS011;9635;52.078;8.648;2022-10-16T12:53:00;2.00;;;0.82;;
19004;SDS011;9635;52.078;8.648;2022-10-16T12:58:08;1.90;;;0.77;;
19004;SDS011;9635;52.078;8.648;2022-10-16T13:03:31;1.73;;;0.80;;
19004;SDS011;9635;52.078;8.648;2022-10-16T13:14:43;1.85;;;0.88;;
19004;SDS011;9635;52.078;8.648;2022-10-16T13:19:58;1.92;;;0.73;;
19004;SDS011;9635;52.078;8.648;2022-10-16T13:25:15;3.40;;;0.90;;
19004;SDS011;9635;52.078;8.648;2022-10-16T13:30:26;1.67;;;0.88;;
19004;SDS011;9635;52.078;8.648;2022-10-16T13:35:32;1.50;;;0.75;;
19004;SDS011;9635;52.078;8.648;2022-10-16T13:40:36;2.33;;;0.80;;
19004;SDS011;9635;52.078;8.648;2022-10-16T13:45:40;1.50;;;0.73;;
19004;SDS011;9635;52.078;8.648;2022-10-16T13:50:43;2.30;;;0.98;;
19004;SDS011;9635;52.078;8.648;2022-10-16T13:55:46;2.58;;;1.30;;
19004;SDS011;9635;52.078;8.648;2022-10-16T14:00:54;2.17;;;0.80;;
19004;SDS011;9635;52.078;8.648;2022-10-16T14:05:59;1.63;;;0.85;;
19004;SDS011;9635;52.078;8.648;2022-10-16T14:11:04;1.92;;;0.70;;
19004;SDS011;9635;52.078;8.648;2022-10-16T14:16:08;2.25;;;0.75;;
19004;SDS011;9635;52.078;8.648;2022-10-16T14:21:13;2.50;;;0.82;;
19004;SDS011;9635;52.078;8.648;2022-10-16T14:26:19;1.50;;;0.75;;
19004;SDS011;9635;52.078;8.648;2022-10-16T14:31:26;2.00;;;0.70;;
19004;SDS011;9635;52.078;8.648;2022-10-16T14:36:31;1.33;;;0.70;;
19004;SDS011;9635;52.078;8.648;2022-10-16T14:41:40;1.30;;;0.75;;
19004;SDS011;9635;52.078;8.648;2022-10-16T14:46:47;1.17;;;0.73;;
19004;SDS011;9635;52.078;8.648;2022-10-16T14:51:50;2.35;;;1.33;;
19004;SDS011;9635;52.078;8.648;2022-10-16T14:56:54;0.77;;;0.68;;
19004;SDS011;9635;52.078;8.648;2022-10-16T15:02:16;3.15;;;0.65;;
19004;SDS011;9635;52.078;8.648;2022-10-16T15:07:23;1.30;;;0.90;;
19004;SDS011;9635;52.078;8.648;2022-10-16T15:12:27;1.05;;;0.68;;
19004;SDS011;9635;52.078;8.648;2022-10-16T15:17:31;1.45;;;0.55;;
19004;SDS011;9635;52.078;8.648;2022-10-16T15:22:34;2.17;;;0.90;;
19004;SDS011;9635;52.078;8.648;2022-10-16T15:27:36;2.25;;;1.02;;
19004;SDS011;9635;52.078;8.648;2022-10-16T15:32:42;1.48;;;0.98;;
19004;SDS011;9635;52.078;8.648;2022-10-16T15:37:45;4.57;;;1.40;;
19004;SDS011;9635;52.078;8.648;2022-10-16T15:42:49;1.17;;;0.80;;
19004;SDS011;9635;52.078;8.648;2022-10-16T15:47:53;2.53;;;1.50;;
19004;SDS011;9635;52.078;8.648;2022-10-16T15:52:56;11.77;;;1.67;;
19004;SDS011;9635;52.078;8.648;2022-10-16T15:57:59;14.70;;;2.40;;
19004;SDS011;9635;52.078;8.648;2022-10-16T16:03:03;23.85;;;2.83;;
19004;SDS011;9635;52.078;8.648;2022-10-16T16:08:06;15.65;;;2.35;;
19004;SDS011;9635;52.078;8.648;2022-10-16T16:13:09;14.48;;;4.65;;
19004;SDS011;9635;52.078;8.648;2022-10-16T16:18:14;13.35;;;7.07;;
19004;SDS011;9635;52.078;8.648;2022-10-16T16:23:16;4.68;;;3.42;;
19004;SDS011;9635;52.078;8.648;2022-10-16T16:28:20;11.50;;;5.05;;
19004;SDS011;9635;52.078;8.648;2022-10-16T16:33:24;12.70;;;7.07;;
19004;SDS011;9635;52.078;8.648;2022-10-16T16:38:28;10.35;;;7.13;;
19004;SDS011;9635;52.078;8.648;2022-10-16T16:43:32;8.60;;;7.85;;
19004;SDS011;9635;52.078;8.648;2022-10-16T16:48:37;9.75;;;7.82;;
19004;SDS011;9635;52.078;8.648;2022-10-16T16:53:40;10.40;;;5.50;;
19004;SDS011;9635;52.078;8.648;2022-10-16T16:58:44;7.03;;;3.78;;
19004;SDS011;9635;52.078;8.648;2022-10-16T17:03:49;3.85;;;2.33;;
19004;SDS011;9635;52.078;8.648;2022-10-16T17:08:54;7.65;;;3.65;;
19004;SDS011;9635;52.078;8.648;2022-10-16T17:13:57;6.13;;;2.65;;
19004;SDS011;9635;52.078;8.648;2022-10-16T17:19:04;4.32;;;2.40;;
19004;SDS011;9635;52.078;8.648;2022-10-16T17:24:08;4.40;;;2.20;;
19004;SDS011;9635;52.078;8.648;2022-10-16T17:29:12;5.65;;;3.22;;
19004;SDS011;9635;52.078;8.648;2022-10-16T17:34:16;4.95;;;3.17;;
19004;SDS011;9635;52.078;8.648;2022-10-16T17:39:20;4.63;;;2.85;;
19004;SDS011;9635;52.078;8.648;2022-10-16T17:44:23;6.15;;;2.97;;
19004;SDS011;9635;52.078;8.648;2022-10-16T17:49:27;4.60;;;3.15;;
19004;SDS011;9635;52.078;8.648;2022-10-16T17:54:30;5.03;;;4.22;;
19004;SDS011;9635;52.078;8.648;2022-10-16T17:59:33;5.95;;;2.88;;
19004;SDS011;9635;52.078;8.648;2022-10-16T18:04:37;4.25;;;2.72;;
19004;SDS011;9635;52.078;8.648;2022-10-16T18:09:41;4.10;;;2.95;;
19004;SDS011;9635;52.078;8.648;2022-10-16T18:15:04;3.33;;;2.42;;
19004;SDS011;9635;52.078;8.648;2022-10-16T18:20:10;4.70;;;2.65;;
19004;SDS011;9635;52.078;8.648;2022-10-16T18:25:14;4.18;;;2.50;;
19004;SDS011;9635;52.078;8.648;2022-10-16T18:30:17;4.10;;;2.40;;
19004;SDS011;9635;52.078;8.648;2022-10-16T18:35:21;4.40;;;2.88;;
19004;SDS011;9635;52.078;8.648;2022-10-16T18:40:24;5.28;;;3.00;;
19004;SDS011;9635;52.078;8.648;2022-10-16T18:45:27;4.15;;;2.72;;
19004;SDS011;9635;52.078;8.648;2022-10-16T18:50:31;4.50;;;3.15;;
19004;SDS011;9635;52.078;8.648;2022-10-16T18:55:34;4.05;;;2.78;;
19004;SDS011;9635;52.078;8.648;2022-10-16T19:00:37;5.22;;;3.17;;
19004;SDS011;9635;52.078;8.648;2022-10-16T19:05:41;5.80;;;3.70;;
19004;SDS011;9635;52.078;8.648;2022-10-16T19:10:46;5.45;;;3.78;;
19004;SDS011;9635;52.078;8.648;2022-10-16T19:15:49;6.00;;;3.47;;
19004;SDS011;9635;52.078;8.648;2022-10-16T19:21:01;4.35;;;3.40;;
19004;SDS011;9635;52.078;8.648;2022-10-16T19:26:11;4.47;;;3.53;;
19004;SDS011;9635;52.078;8.648;2022-10-16T19:31:17;6.95;;;3.63;;
19004;SDS011;9635;52.078;8.648;2022-10-16T19:36:23;5.55;;;3.00;;
19004;SDS011;9635;52.078;8.648;2022-10-16T19:41:27;4.85;;;2.70;;
19004;SDS011;9635;52.078;8.648;2022-10-16T19:46:32;5.95;;;3.28;;
19004;SDS011;9635;52.078;8.648;2022-10-16T19:51:36;4.68;;;2.55;;
19004;SDS011;9635;52.078;8.648;2022-10-16T19:56:40;3.85;;;2.50;;
19004;SDS011;9635;52.078;8.648;2022-10-16T20:01:44;3.58;;;2.60;;
19004;SDS011;9635;52.078;8.648;2022-10-16T20:06:49;8.27;;;3.05;;
19004;SDS011;9635;52.078;8.648;2022-10-16T20:11:52;4.57;;;3.40;;
19004;SDS011;9635;52.078;8.648;2022-10-16T20:16:55;5.22;;;2.95;;
19004;SDS011;9635;52.078;8.648;2022-10-16T20:21:59;4.53;;;3.58;;
19004;SDS011;9635;52.078;8.648;2022-10-16T20:27:02;7.20;;;2.50;;
19004;SDS011;9635;52.078;8.648;2022-10-16T20:32:05;5.65;;;2.95;;
19004;SDS011;9635;52.078;8.648;2022-10-16T20:37:09;4.07;;;2.85;;
19004;SDS011;9635;52.078;8.648;2022-10-16T20:42:12;5.60;;;3.00;;
19004;SDS011;9635;52.078;8.648;2022-10-16T20:47:15;8.27;;;3.80;;
19004;SDS011;9635;52.078;8.648;2022-10-16T20:52:19;5.07;;;3.20;;
19004;SDS011;9635;52.078;8.648;2022-10-16T20:57:22;10.05;;;3.63;;
19004;SDS011;9635;52.078;8.648;2022-10-16T21:02:25;5.40;;;2.95;;
19004;SDS011;9635;52.078;8.648;2022-10-16T21:07:29;6.40;;;3.05;;
19004;SDS011;9635;52.078;8.648;2022-10-16T21:12:32;5.80;;;3.45;;
19004;SDS011;9635;52.078;8.648;2022-10-16T21:17:35;6.57;;;3.42;;
19004;SDS011;9635;52.078;8.648;2022-10-16T21:22:39;6.28;;;3.80;;
19004;SDS011;9635;52.078;8.648;2022-10-16T21:27:42;8.30;;;3.75;;
19004;SDS011;9635;52.078;8.648;2022-10-16T21:32:46;9.65;;;4.32;;
19004;SDS011;9635;52.078;8.648;2022-10-16T21:37:50;8.13;;;4.32;;
19004;SDS011;9635;52.078;8.648;2022-10-16T21:42:53;5.80;;;4.65;;
19004;SDS011;9635;52.078;8.648;2022-10-16T21:47:56;7.15;;;4.13;;
19004;SDS011;9635;52.078;8.648;2022-10-16T21:53:00;6.53;;;4.40;;
19004;SDS011;9635;52.078;8.648;2022-10-16T21:58:02;8.43;;;3.33;;
19004;SDS011;9635;52.078;8.648;2022-10-16T22:03:05;3.80;;;3.30;;
19004;SDS011;9635;52.078;8.648;2022-10-16T22:08:09;5.43;;;4.20;;
19004;SDS011;9635;52.078;8.648;2022-10-16T22:13:12;5.75;;;3.55;;
19004;SDS011;9635;52.078;8.648;2022-10-16T22:18:15;6.40;;;3.63;;
19004;SDS011;9635;52.078;8.648;2022-10-16T22:23:19;4.55;;;3.00;;
19004;SDS011;9635;52.078;8.648;2022-10-16T22:28:22;3.55;;;2.53;;
19004;SDS011;9635;52.078;8.648;2022-10-16T22:33:25;6.13;;;3.03;;
19004;SDS011;9635;52.078;8.648;2022-10-16T22:38:30;4.15;;;2.88;;
19004;SDS011;9635;52.078;8.648;2022-10-16T22:43:33;4.75;;;2.97;;
19004;SDS011;9635;52.078;8.648;2022-10-16T22:48:37;6.22;;;3.65;;
19004;SDS011;9635;52.078;8.648;2022-10-16T22:53:42;4.97;;;3.13;;
19004;SDS011;9635;52.078;8.648;2022-10-16T22:58:45;5.45;;;3.72;;
19004;SDS011;9635;52.078;8.648;2022-10-16T23:03:48;4.50;;;3.90;;
19004;SDS011;9635;52.078;8.648;2022-10-16T23:08:53;5.90;;;4.38;;
19004;SDS011;9635;52.078;8.648;2022-10-16T23:13:57;6.35;;;4.70;;
19004;SDS011;9635;52.078;8.648;2022-10-16T23:19:00;6.35;;;4.30;;
19004;SDS011;9635;52.078;8.648;2022-10-16T23:24:04;6.30;;;4.55;;
19004;SDS011;9635;52.078;8.648;2022-10-16T23:29:07;7.15;;;5.57;;
19004;SDS011;9635;52.078;8.648;2022-10-16T23:34:10;6.28;;;4.47;;
19004;SDS011;9635;52.078;8.648;2022-10-16T23:39:15;7.00;;;5.28;;
19004;SDS011;9635;52.078;8.648;2022-10-16T23:44:18;8.05;;;5.03;;
19004;SDS011;9635;52.078;8.648;2022-10-16T23:49:21;7.40;;;5.22;;
19004;SDS011;9635;52.078;8.648;2022-10-16T23:54:25;6.05;;;4.85;;
19004;SDS011;9635;52.078;8.648;2022-10-16T23:59:28;6.53;;;4.85;;
